Time;durP1;ratioP1;P1;durP2;ratioP2;P2;SDS_P1;SDS_P2;PMS_P1;PMS_P2;Temp;Humidity;BMP_temperature;BMP_pressure;BME280_temperature;BME280_humidity;BME280_pressure;Samples;Min_cycle;Max_cycle;Signal;HPM_P1;HPM_P2
2022/05/22 00:02:15;;;;;;;;;;;;;;;6.03;48.56;98627.69;5022831;28;19952;-72
2022/05/22 00:04:40;;;;;;;;;;;;;;;6.01;48.72;98635.25;5023313;28;19959;-72
2022/05/22 00:07:06;;;;;;;;;;;;;;;6.01;48.85;98638.81;5024304;28;20003;-72
2022/05/22 00:09:32;;;;;;;;;;;;;;;6.01;48.71;98629.81;5037975;28;20435;-72
2022/05/22 00:11:58;;;;;;;;;;;;;;;5.97;48.70;98633.06;5024845;28;19951;-73
2022/05/22 00:14:25;;;;;;;;;;;;;;;5.96;48.53;98638.78;5038270;28;19979;-72
2022/05/22 00:16:53;;;;;;;;;;;;;;;5.89;48.68;98621.97;5025685;28;19924;-73
2022/05/22 00:19:20;;;;;;;;;;;;;;;5.88;48.87;98623.03;5020984;28;19925;-72
2022/05/22 00:21:46;;;;;;;;;;;;;;;5.82;48.79;98623.06;5023871;28;19932;-68
2022/05/22 00:24:15;;;;;;;;;;;;;;;5.74;48.99;98623.59;5022504;28;19928;-68
2022/05/22 00:26:44;;;;;;;;;;;;;;;5.70;48.86;98619.81;5039492;28;19932;-68
2022/05/22 00:29:10;;;;;;;;;;;;;;;5.70;48.90;98624.41;5022804;28;20339;-68
2022/05/22 00:31:36;;;;;;;;;;;;;;;5.63;48.71;98620.06;5041485;28;19925;-67
2022/05/22 00:34:03;;;;;;;;;;;;;;;5.53;48.88;98618.19;5022989;28;19929;-68
2022/05/22 00:36:29;;;;;;;;;;;;;;;5.46;49.07;98617.63;5023983;28;19956;-68
2022/05/22 00:38:55;;;;;;;;;;;;;;;5.41;49.16;98617.63;5024938;28;19924;-68
2022/05/22 00:41:21;;;;;;;;;;;;;;;5.36;49.27;98612.19;5024680;28;19932;-68
2022/05/22 00:43:48;;;;;;;;;;;;;;;5.29;49.48;98617.88;5024448;28;20544;-68
2022/05/22 00:46:16;;;;;;;;;;;;;;;5.22;49.71;98612.72;5037371;28;20410;-68
2022/05/22 00:48:43;;;;;;;;;;;;;;;5.15;49.71;98609.47;5021166;28;19925;-68
2022/05/22 00:51:13;;;;;;;;;;;;;;;5.11;49.99;98602.94;5023794;28;19925;-69
2022/05/22 00:53:42;;;;;;;;;;;;;;;5.06;50.00;98611.84;5022411;28;19924;-68
2022/05/22 00:56:10;;;;;;;;;;;;;;;5.02;49.85;98601.84;5007936;28;20308;-68
2022/05/22 00:58:36;;;;;;;;;;;;;;;5.00;49.92;98601.31;5005910;28;20031;-69
2022/05/22 01:01:02;;;;;;;;;;;;;;;4.94;50.03;98597.75;5008963;28;19930;-69
2022/05/22 01:03:28;;;;;;;;;;;;;;;4.92;50.31;98595.31;5006834;28;20477;-68
2022/05/22 01:05:55;;;;;;;;;;;;;;;4.90;50.24;98597.47;5023587;28;19979;-68
2022/05/22 01:08:22;;;;;;;;;;;;;;;4.90;50.33;98597.47;5039108;28;19931;-68
2022/05/22 01:10:50;;;;;;;;;;;;;;;4.89;50.33;98598.56;5028569;28;19932;-68
2022/05/22 01:13:18;;;;;;;;;;;;;;;4.86;50.24;98588.25;5043473;28;20396;-68
2022/05/22 01:15:44;;;;;;;;;;;;;;;4.86;50.25;98577.44;5028185;28;19925;-68
2022/05/22 01:18:12;;;;;;;;;;;;;;;4.85;50.30;98589.34;5041704;28;19932;-69
2022/05/22 01:20:44;;;;;;;;;;;;;;;4.82;50.15;98589.84;5029426;28;19925;-69
2022/05/22 01:23:11;;;;;;;;;;;;;;;4.78;50.35;98589.59;5024931;28;19925;-68
2022/05/22 01:25:37;;;;;;;;;;;;;;;4.74;50.63;98593.09;5043463;28;19932;-69
2022/05/22 01:28:03;;;;;;;;;;;;;;;4.74;50.39;98583.06;5025363;28;19925;-68
2022/05/22 01:30:29;;;;;;;;;;;;;;;4.74;50.56;98584.97;5027266;28;19931;-68
2022/05/22 01:33:07;;;;;;;;;;;;;;;4.74;50.68;98582.25;5025037;28;19932;-68
2022/05/22 01:35:35;;;;;;;;;;;;;;;4.74;50.50;98590.38;5044394;28;19928;-69
2022/05/22 01:38:05;;;;;;;;;;;;;;;4.74;50.71;98588.47;5025119;28;19925;-69
2022/05/22 01:40:33;;;;;;;;;;;;;;;4.78;50.35;98591.47;5025239;28;20297;-68
2022/05/22 01:43:00;;;;;;;;;;;;;;;4.82;50.32;98585.25;5040946;28;19931;-68
2022/05/22 01:45:27;;;;;;;;;;;;;;;4.80;50.42;98575.78;5041470;28;19931;-68
2022/05/22 01:47:54;;;;;;;;;;;;;;;4.83;50.12;98572.53;5040580;28;19971;-68
2022/05/22 01:50:28;;;;;;;;;;;;;;;4.82;50.13;98573.59;5022920;28;19964;-68
2022/05/22 01:52:54;;;;;;;;;;;;;;;4.82;50.22;98565.47;5043437;28;19925;-69
2022/05/22 01:55:20;;;;;;;;;;;;;;;4.82;50.14;98563.59;5042160;28;20380;-69
2022/05/22 01:57:49;;;;;;;;;;;;;;;4.92;50.03;98570.94;5023274;28;19947;-68
2022/05/22 02:00:19;;;;;;;;;;;;;;;4.93;49.86;98574.47;5041032;28;20463;-69
2022/05/22 02:02:46;;;;;;;;;;;;;;;4.95;49.78;98564.97;5040834;28;19924;-69
2022/05/22 02:05:23;;;;;;;;;;;;;;;4.95;49.88;98569.59;5019136;28;20352;-69
2022/05/22 02:10:34;;;;;;;;;;;;;;;4.94;49.94;98571.47;5004651;28;19925;-68
2022/05/22 02:13:01;;;;;;;;;;;;;;;4.95;50.00;98570.38;5004041;28;19933;-69
2022/05/22 02:15:28;;;;;;;;;;;;;;;5.05;49.62;98566.88;5023208;28;19929;-73
2022/05/22 02:17:54;;;;;;;;;;;;;;;5.11;49.53;98563.13;4990081;28;19925;-72
2022/05/22 02:20:20;;;;;;;;;;;;;;;5.10;49.74;98560.66;5004894;28;19935;-73
2022/05/22 02:22:47;;;;;;;;;;;;;;;5.12;49.49;98569.34;5004512;28;19932;-73
2022/05/22 02:25:14;;;;;;;;;;;;;;;5.09;49.64;98567.16;5006294;28;19925;-73
2022/05/22 02:27:40;;;;;;;;;;;;;;;5.05;49.89;98564.16;4989657;28;19926;-73
2022/05/22 02:30:10;;;;;;;;;;;;;;;5.09;49.88;98559.03;5004903;28;19999;-72
2022/05/22 02:32:39;;;;;;;;;;;;;;;5.12;49.62;98566.63;5023192;28;19933;-73
2022/05/22 02:35:06;;;;;;;;;;;;;;;5.17;49.52;98563.94;5020078;28;19931;-73
2022/05/22 02:37:38;;;;;;;;;;;;;;;5.20;49.48;98566.09;5004341;28;19932;-73
2022/05/22 02:40:10;;;;;;;;;;;;;;;5.24;49.71;98564.47;5005121;28;19987;-73
2022/05/22 02:42:48;;;;;;;;;;;;;;;5.26;49.49;98556.09;5005986;28;19933;-72
2022/05/22 02:45:22;;;;;;;;;;;;;;;5.25;49.53;98565.31;5004473;28;19932;-73
2022/05/22 02:47:49;;;;;;;;;;;;;;;5.23;49.96;98560.13;4987319;28;19939;-72
2022/05/22 02:50:16;;;;;;;;;;;;;;;5.23;49.74;98562.06;5002689;28;20425;-72
2022/05/22 02:52:42;;;;;;;;;;;;;;;5.24;49.73;98564.47;5020482;28;19925;-73
2022/05/22 02:55:08;;;;;;;;;;;;;;;5.27;49.87;98573.16;5005565;28;19925;-72
2022/05/22 02:57:34;;;;;;;;;;;;;;;5.30;49.92;98568.00;5004138;28;20020;-73
2022/05/22 03:00:04;;;;;;;;;;;;;;;5.33;49.82;98559.31;5004889;28;19929;-74
2022/05/22 03:02:36;;;;;;;;;;;;;;;5.36;49.83;98560.69;5005700;28;19925;-73
2022/05/22 03:05:02;;;;;;;;;;;;;;;5.33;49.72;98558.53;5006558;28;19929;-74
2022/05/22 03:07:29;;;;;;;;;;;;;;;5.32;49.84;98556.91;5006193;28;19956;-72
2022/05/22 03:10:04;;;;;;;;;;;;;;;5.37;49.86;98560.41;5004212;28;19925;-72
2022/05/22 03:12:35;;;;;;;;;;;;;;;5.44;49.69;98557.44;5021867;28;19999;-72
2022/05/22 03:15:01;;;;;;;;;;;;;;;5.50;49.57;98558.25;5004913;28;19953;-72
2022/05/22 03:17:30;;;;;;;;;;;;;;;5.51;49.62;98559.88;5002626;28;19925;-72
2022/05/22 03:19:59;;;;;;;;;;;;;;;5.54;49.56;98562.84;5020187;28;19925;-72
2022/05/22 03:22:25;;;;;;;;;;;;;;;5.55;49.44;98560.97;5004442;28;19925;-72
2022/05/22 03:24:51;;;;;;;;;;;;;;;5.57;49.68;98564.22;5021061;28;19975;-72
2022/05/22 03:27:19;;;;;;;;;;;;;;;5.58;49.49;98557.72;5018258;28;19929;-72
2022/05/22 03:29:45;;;;;;;;;;;;;;;5.66;49.36;98562.56;5004277;28;19979;-72
2022/05/22 03:32:12;;;;;;;;;;;;;;;5.72;49.47;98560.66;5005039;28;20019;-72
2022/05/22 03:34:40;;;;;;;;;;;;;;;5.79;49.32;98557.69;5002903;28;20056;-68
2022/05/22 03:37:07;;;;;;;;;;;;;;;5.85;49.34;98558.50;5008274;28;20495;-68
2022/05/22 03:39:33;;;;;;;;;;;;;;;5.96;49.41;98557.41;5005090;28;19952;-68
2022/05/22 03:42:00;;;;;;;;;;;;;;;5.95;49.05;98561.19;4987965;28;20352;-69
2022/05/22 03:44:26;;;;;;;;;;;;;;;5.99;48.97;98567.69;5007317;28;19929;-68
2022/05/22 03:46:53;;;;;;;;;;;;;;;6.03;48.96;98562.56;5008487;28;19948;-68
2022/05/22 03:49:23;;;;;;;;;;;;;;;6.11;48.85;98556.56;5001663;28;19925;-68
2022/05/22 03:51:52;;;;;;;;;;;;;;;6.17;48.89;98551.94;5003895;28;20364;-68
2022/05/22 03:54:20;;;;;;;;;;;;;;;6.24;48.86;98550.56;5019693;28;19964;-68
2022/05/22 03:56:48;;;;;;;;;;;;;;;6.32;48.63;98551.06;5001239;28;19952;-68
2022/05/22 03:59:27;;;;;;;;;;;;;;;6.34;48.24;98552.41;4988968;28;20578;-68
2022/05/22 04:01:53;;;;;;;;;;;;;;;6.36;48.41;98552.16;5020959;28;20365;-68
2022/05/22 04:04:20;;;;;;;;;;;;;;;6.38;48.37;98547.25;5004607;28;20386;-68
2022/05/22 04:06:46;;;;;;;;;;;;;;;6.41;48.24;98554.03;5003947;28;19971;-68
2022/05/22 04:09:18;;;;;;;;;;;;;;;6.40;48.18;98550.50;5004914;28;20015;-68
2022/05/22 04:11:59;;;;;;;;;;;;;;;6.30;48.30;98524.19;5008194;28;20494;-68
2022/05/22 04:14:25;;;;;;;;;;;;;;;6.41;48.38;98549.41;5038003;28;20015;-68
2022/05/22 04:17:00;;;;;;;;;;;;;;;6.47;48.14;98545.56;5038976;28;20024;-67
2022/05/22 04:19:27;;;;;;;;;;;;;;;6.51;48.00;98533.06;5040060;28;20391;-69
2022/05/22 04:21:53;;;;;;;;;;;;;;;6.53;47.88;98535.50;5039113;28;19971;-69
2022/05/22 04:27:10;;;;;;;;;;;;;;;6.59;47.86;98541.72;4987412;28;19975;-68
2022/05/22 04:29:37;;;;;;;;;;;;;;;6.63;47.63;98535.47;5002694;28;20035;-69
2022/05/22 04:32:03;;;;;;;;;;;;;;;6.69;47.54;98540.84;5008186;28;20472;-68
2022/05/22 04:34:36;;;;;;;;;;;;;;;6.78;47.28;98536.47;5008116;28;19965;-68
2022/05/22 04:37:09;;;;;;;;;;;;;;;6.84;47.39;98542.69;5006744;28;19979;-68
2022/05/22 04:39:41;;;;;;;;;;;;;;;6.91;47.32;98544.00;5006896;28;20309;-68
2022/05/22 04:42:07;;;;;;;;;;;;;;;6.99;47.10;98533.63;5010027;28;19929;-68
2022/05/22 04:44:34;;;;;;;;;;;;;;;7.06;47.08;98539.56;5026058;28;20019;-68
2022/05/22 04:47:18;;;;;;;;;;;;;;;7.11;46.82;98539.50;5008348;28;19932;-68
2022/05/22 04:50:03;;;;;;;;;;;;;;;7.16;46.88;98538.69;5007128;28;19932;-68
2022/05/22 04:52:29;;;;;;;;;;;;;;;7.18;46.42;98542.75;5006166;28;20375;-68
2022/05/22 04:54:55;;;;;;;;;;;;;;;7.16;46.17;98544.91;5009061;28;20032;-68
2022/05/22 04:57:22;;;;;;;;;;;;;;;7.14;46.01;98544.38;5005347;28;20067;-68
2022/05/22 04:59:49;;;;;;;;;;;;;;;7.08;45.94;98542.81;5022830;28;20020;-68
2022/05/22 05:02:15;;;;;;;;;;;;;;;7.09;46.02;98544.44;5007066;28;19925;-68
2022/05/22 05:04:52;;;;;;;;;;;;;;;7.14;45.86;98535.44;5007754;28;20019;-68
2022/05/22 05:07:38;;;;;;;;;;;;;;;7.15;45.91;98540.56;5005384;28;20726;-68
2022/05/22 05:10:24;;;;;;;;;;;;;;;7.21;45.72;98538.63;4989507;28;19953;-68
2022/05/22 05:13:02;;;;;;;;;;;;;;;7.31;45.62;98532.28;5006116;28;19925;-68
2022/05/22 05:15:32;;;;;;;;;;;;;;;7.38;45.45;98535.50;5023768;28;19925;-68
2022/05/22 05:18:17;;;;;;;;;;;;;;;7.48;45.26;98531.91;5005456;28;19932;-68
2022/05/22 05:20:45;;;;;;;;;;;;;;;7.56;44.77;98528.53;5007597;28;19925;-68
2022/05/22 05:23:11;;;;;;;;;;;;;;;7.63;44.58;98533.66;5005246;28;19925;-69
2022/05/22 05:25:41;;;;;;;;;;;;;;;7.64;44.30;98518.94;5007709;28;20019;-68
2022/05/22 05:28:08;;;;;;;;;;;;;;;7.61;43.64;98522.25;5007419;28;20028;-68
2022/05/22 05:30:35;;;;;;;;;;;;;;;7.57;43.39;98532.91;5023651;28;19925;-68
2022/05/22 05:33:01;;;;;;;;;;;;;;;7.46;43.67;98523.22;5005775;28;20008;-68
2022/05/22 05:35:53;;;;;;;;;;;;;;;7.58;43.80;98526.38;4988066;28;20648;-68
2022/05/22 05:38:50;;;;;;;;;;;;;;;7.69;43.77;98516.19;4986911;28;19926;-68
2022/05/22 05:41:28;;;;;;;;;;;;;;;7.78;43.16;98521.81;4993155;28;19925;-68
2022/05/22 05:43:54;;;;;;;;;;;;;;;7.79;42.76;98523.44;5019952;28;19925;-68
2022/05/22 05:46:22;;;;;;;;;;;;;;;7.83;42.79;98520.97;5022120;28;19932;-68
2022/05/22 05:48:48;;;;;;;;;;;;;;;7.90;42.56;98518.72;5023566;28;20020;-69
2022/05/22 05:51:14;;;;;;;;;;;;;;;7.95;42.75;98527.63;5006580;28;19925;-68
2022/05/22 05:53:47;;;;;;;;;;;;;;;7.95;42.45;98522.19;5023108;28;20384;-68
2022/05/22 05:56:32;;;;;;;;;;;;;;;7.96;42.32;98525.75;5007626;28;20389;-68
2022/05/22 05:59:11;;;;;;;;;;;;;;;7.97;42.59;98521.91;5006598;28;20410;-68
2022/05/22 06:01:46;;;;;;;;;;;;;;;8.05;42.78;98524.00;5007307;28;19926;-68
2022/05/22 06:04:12;;;;;;;;;;;;;;;8.15;42.65;98531.22;5006008;28;20036;-68
2022/05/22 06:06:38;;;;;;;;;;;;;;;8.30;42.75;98529.44;5007490;28;19933;-68
2022/05/22 06:09:04;;;;;;;;;;;;;;;8.40;42.00;98534.75;5025136;28;19925;-68
2022/05/22 06:11:33;;;;;;;;;;;;;;;8.46;41.68;98532.78;5014785;28;19929;-68
2022/05/22 06:14:16;;;;;;;;;;;;;;;8.61;41.18;98531.78;5008621;28;20534;-68
2022/05/22 06:16:42;;;;;;;;;;;;;;;8.75;40.21;98526.44;5005456;28;19932;-68
2022/05/22 06:19:12;;;;;;;;;;;;;;;8.84;39.62;98527.41;5002091;28;19963;-68
2022/05/22 06:21:38;;;;;;;;;;;;;;;8.98;39.13;98524.75;5002907;28;19933;-69
2022/05/22 06:24:08;;;;;;;;;;;;;;;9.10;38.72;98526.19;4676711;28;9999918;-68
2022/05/22 06:26:55;;;;;;;;;;;;;;;9.21;38.33;98524.94;5004193;28;20516;-68
2022/05/22 06:29:23;;;;;;;;;;;;;;;9.26;38.43;98529.53;5022532;28;19932;-68
2022/05/22 06:32:15;;;;;;;;;;;;;;;9.31;38.50;98529.44;5022080;28;19925;-68
2022/05/22 06:35:06;;;;;;;;;;;;;;;9.37;38.25;98525.53;5011038;28;19929;-68
2022/05/22 06:37:42;;;;;;;;;;;;;;;9.51;38.16;98520.09;5020293;28;20414;-69
2022/05/22 06:40:31;;;;;;;;;;;;;;;9.58;38.40;98523.25;5010335;28;19924;-68
2022/05/22 06:43:15;;;;;;;;;;;;;;;9.83;38.09;98525.81;5005878;28;19925;-69
2022/05/22 06:46:17;;;;;;;;;;;;;;;9.96;37.92;98518.78;5013284;28;19929;-69
2022/05/22 06:49:02;;;;;;;;;;;;;;;10.05;37.55;98523.22;5010028;28;19925;-68
2022/05/22 06:51:48;;;;;;;;;;;;;;;10.12;37.56;98519.28;5019506;28;20415;-68
2022/05/22 06:54:25;;;;;;;;;;;;;;;10.29;37.29;98521.41;5016903;28;19928;-68
2022/05/22 06:57:10;;;;;;;;;;;;;;;10.42;37.25;98517.91;5018511;28;19947;-68
2022/05/22 06:59:57;;;;;;;;;;;;;;;10.57;36.79;98510.50;5022457;28;19932;-68
2022/05/22 07:02:42;;;;;;;;;;;;;;;10.54;35.70;98514.63;5016255;28;19924;-68
2022/05/22 07:05:26;;;;;;;;;;;;;;;10.49;35.41;98517.47;5017922;28;19963;-73
2022/05/22 07:08:05;;;;;;;;;;;;;;;10.51;35.34;98523.44;5022347;28;19939;-73
2022/05/22 07:14:16;;;;;;;;;;;;;;;10.72;34.38;98520.28;5036296;28;19928;-73
2022/05/22 07:17:03;;;;;;;;;;;;;;;10.95;34.05;98512.91;5017781;28;19936;-73
2022/05/22 07:19:37;;;;;;;;;;;;;;;11.07;33.07;98515.09;5017971;28;20408;-73
2022/05/22 07:22:20;;;;;;;;;;;;;;;11.23;32.38;98510.09;5016202;28;19925;-73
2022/05/22 07:24:57;;;;;;;;;;;;;;;11.39;32.50;98510.50;5021564;28;19932;-73
2022/05/22 07:27:46;;;;;;;;;;;;;;;11.62;32.10;98505.03;4998505;28;20356;-73
2022/05/22 07:30:28;;;;;;;;;;;;;;;11.69;31.62;98504.56;5040446;28;20027;-73
2022/05/22 07:33:14;;;;;;;;;;;;;;;11.52;32.17;98514.31;4989289;28;19951;-73
2022/05/22 07:35:53;;;;;;;;;;;;;;;11.60;32.49;98505.31;5023271;28;19980;-73
2022/05/22 07:38:45;;;;;;;;;;;;;;;11.75;31.70;98503.31;5002872;28;19925;-73
2022/05/22 07:41:31;;;;;;;;;;;;;;;11.77;31.09;98512.84;5024324;28;19929;-73
2022/05/22 07:44:05;;;;;;;;;;;;;;;11.78;30.60;98506.25;5021074;28;20444;-73
2022/05/22 07:46:49;;;;;;;;;;;;;;;11.86;29.88;98512.06;5038253;28;20023;-73
2022/05/22 07:52:39;;;;;;;;;;;;;;;12.00;30.51;98503.75;5022229;28;19948;-73
2022/05/22 07:55:23;;;;;;;;;;;;;;;12.20;30.35;98507.91;5000982;28;20435;-73
2022/05/22 07:58:12;;;;;;;;;;;;;;;12.37;29.67;98509.06;4981066;28;19925;-73
2022/05/22 08:01:04;;;;;;;;;;;;;;;12.44;29.98;98503.94;5009406;28;19925;-73
2022/05/22 08:03:52;;;;;;;;;;;;;;;12.65;30.07;98495.91;4981700;28;19925;-73
2022/05/22 08:06:50;;;;;;;;;;;;;;;13.03;29.33;98487.06;4998874;28;19975;-72
2022/05/22 08:09:31;;;;;;;;;;;;;;;13.21;28.63;98486.22;5043050;28;20288;-73
2022/05/22 08:11:57;;;;;;;;;;;;;;;13.61;28.58;98480.56;5027870;28;20062;-68
2022/05/22 08:14:24;;;;;;;;;;;;;;;13.94;27.56;98468.13;5024901;28;19925;-68
2022/05/22 08:16:51;;;;;;;;;;;;;;;14.17;27.24;98483.25;5036969;28;19925;-68
2022/05/22 08:19:21;;;;;;;;;;;;;;;14.27;27.03;98479.31;5005537;28;19925;-68
2022/05/22 08:22:10;;;;;;;;;;;;;;;14.55;26.99;98484.31;5004064;28;20043;-68
2022/05/22 08:24:56;;;;;;;;;;;;;;;15.07;25.83;98476.84;4975347;28;19956;-68
2022/05/22 08:27:25;;;;;;;;;;;;;;;15.27;24.92;98471.63;5011096;28;20043;-68
2022/05/22 08:29:52;;;;;;;;;;;;;;;15.21;24.64;98470.25;5024508;28;19995;-68
2022/05/22 08:32:18;;;;;;;;;;;;;;;15.31;24.19;98481.63;5030109;28;19925;-69
2022/05/22 08:34:44;;;;;;;;;;;;;;;15.62;24.27;98470.47;5026613;28;19979;-68
2022/05/22 08:37:09;;;;;;;;;;;;;;;15.97;24.09;98476.41;5027179;28;19925;-68
2022/05/22 08:39:35;;;;;;;;;;;;;;;16.10;23.96;98476.44;5023851;28;20040;-68
2022/05/22 08:42:07;;;;;;;;;;;;;;;16.13;23.65;98468.25;5040983;28;20362;-70
2022/05/22 08:44:33;;;;;;;;;;;;;;;16.56;23.27;98470.75;5007253;28;19924;-69
2022/05/22 08:47:03;;;;;;;;;;;;;;;16.44;22.46;98469.63;4678388;28;9999824;-69
2022/05/22 08:49:30;;;;;;;;;;;;;;;16.18;22.29;98469.19;5003659;28;19932;-68
2022/05/22 08:51:59;;;;;;;;;;;;;;;16.26;22.03;98476.53;5002217;28;19925;-68
2022/05/22 08:54:27;;;;;;;;;;;;;;;16.58;22.60;98472.03;5002866;28;20015;-68
2022/05/22 08:59:43;;;;;;;;;;;;;;;17.61;21.25;98464.66;5003477;28;20432;-68
2022/05/22 09:02:24;;;;;;;;;;;;;;;17.83;21.21;98458.50;5005012;28;19971;-74
2022/05/22 09:04:53;;;;;;;;;;;;;;;18.08;21.11;98455.59;5001717;28;20622;-74
2022/05/22 09:07:20;;;;;;;;;;;;;;;18.37;20.19;98453.50;5020514;28;20000;-74
2022/05/22 09:09:49;;;;;;;;;;;;;;;18.47;20.32;98460.44;5018965;28;19963;-74
2022/05/22 09:12:30;;;;;;;;;;;;;;;18.54;19.85;98462.56;5003128;28;19925;-68
2022/05/22 09:15:02;;;;;;;;;;;;;;;18.81;20.18;98452.47;4999933;28;19948;-68
2022/05/22 09:17:36;;;;;;;;;;;;;;;19.22;19.33;98443.81;5002549;28;19925;-69
2022/05/22 09:20:09;;;;;;;;;;;;;;;19.01;19.18;98435.09;4986045;28;19937;-69
2022/05/22 09:22:38;;;;;;;;;;;;;;;18.62;19.46;98447.72;4984129;28;19925;-69
2022/05/22 09:25:12;;;;;;;;;;;;;;;18.91;19.34;98456.63;4999616;28;19931;-68
2022/05/22 09:27:43;;;;;;;;;;;;;;;19.64;18.28;98449.75;5001583;28;20381;-68
2022/05/22 09:30:16;;;;;;;;;;;;;;;20.28;17.69;98457.53;4999971;28;20012;-69
2022/05/22 09:32:53;;;;;;;;;;;;;;;20.58;17.51;98450.44;5003193;28;19925;-69
2022/05/22 09:35:21;;;;;;;;;;;;;;;20.46;17.63;98449.50;5001530;28;20401;-69
2022/05/22 09:37:53;;;;;;;;;;;;;;;20.69;16.61;98454.97;5020068;28;19941;-74
2022/05/22 09:40:25;;;;;;;;;;;;;;;20.65;16.50;98462.44;5019968;28;19948;-69
2022/05/22 09:42:59;;;;;;;;;;;;;;;20.82;16.59;98454.75;5006776;28;19925;-69
2022/05/22 09:45:32;;;;;;;;;;;;;;;20.95;16.33;98458.09;5003246;28;19925;-69
2022/05/22 09:48:12;;;;;;;;;;;;;;;21.19;16.12;98456.81;5025752;28;20315;-69
2022/05/22 09:50:46;;;;;;;;;;;;;;;21.21;15.20;98448.06;5019145;28;19925;-74
2022/05/22 09:53:13;;;;;;;;;;;;;;;21.36;15.02;98449.81;5020350;28;19956;-74
2022/05/22 09:55:44;;;;;;;;;;;;;;;21.12;15.71;98445.59;5015619;28;20024;-69
2022/05/22 09:58:24;;;;;;;;;;;;;;;21.58;15.57;98444.50;5016244;28;19925;-69
2022/05/22 10:00:55;;;;;;;;;;;;;;;21.69;15.59;98452.97;5008475;28;19995;-74
2022/05/22 10:03:29;;;;;;;;;;;;;;;21.76;15.44;98453.03;5011790;28;19957;-68
2022/05/22 10:06:00;;;;;;;;;;;;;;;21.89;15.45;98434.09;5006548;28;19932;-68
2022/05/22 10:08:34;;;;;;;;;;;;;;;21.75;15.15;98451.44;5008382;28;19931;-68
2022/05/22 10:11:04;;;;;;;;;;;;;;;21.75;14.93;98443.09;5009495;28;19925;-74
2022/05/22 10:13:35;;;;;;;;;;;;;;;21.96;14.16;98427.78;5024518;28;19925;-74
2022/05/22 10:16:06;;;;;;;;;;;;;;;21.84;13.96;98442.75;5021919;28;20024;-74
2022/05/22 10:18:43;;;;;;;;;;;;;;;22.14;13.48;98424.31;5005871;28;19931;-73
2022/05/22 10:21:14;;;;;;;;;;;;;;;21.87;13.63;98430.88;5006805;28;19929;-74
2022/05/22 10:23:49;;;;;;;;;;;;;;;22.22;13.20;98446.25;5003812;28;20436;-74
2022/05/22 10:26:20;;;;;;;;;;;;;;;22.30;13.71;98438.75;5020511;28;20028;-74
2022/05/22 10:28:49;;;;;;;;;;;;;;;22.70;14.05;98429.84;5004405;28;19925;-74
2022/05/22 10:31:18;;;;;;;;;;;;;;;22.89;13.62;98429.56;5004442;28;19925;-74
2022/05/22 10:33:50;;;;;;;;;;;;;;;22.90;13.98;98433.13;5008566;28;20319;-74
2022/05/22 10:36:19;;;;;;;;;;;;;;;22.79;13.59;98435.88;5023454;28;20403;-69
2022/05/22 10:38:46;;;;;;;;;;;;;;;23.04;13.55;98426.84;5011691;28;19926;-74
2022/05/22 10:44:06;;;;;;;;;;;;;;;22.72;14.01;98425.50;5004907;28;20401;-74
2022/05/22 10:46:44;;;;;;;;;;;;;;;23.19;13.69;98436.84;5007192;28;19968;-74
2022/05/22 10:49:11;;;;;;;;;;;;;;;23.76;13.35;98421.41;5004430;28;20011;-74
2022/05/22 10:51:36;;;;;;;;;;;;;;;23.92;12.67;98429.41;5007872;28;20007;-73
2022/05/22 10:54:02;;;;;;;;;;;;;;;23.75;12.94;98433.75;5008754;28;19964;-69
2022/05/22 10:56:29;;;;;;;;;;;;;;;24.19;13.03;98433.78;5038215;28;20356;-68
2022/05/22 10:58:56;;;;;;;;;;;;;;;24.88;12.21;98433.66;5004529;28;19925;-69
2022/05/22 11:01:24;;;;;;;;;;;;;;;24.70;11.67;98434.50;5005832;28;20236;-69
2022/05/22 11:03:59;;;;;;;;;;;;;;;24.80;11.71;98435.69;5004508;28;20392;-68
2022/05/22 11:06:27;;;;;;;;;;;;;;;24.63;11.69;98440.09;5000949;28;20730;-69
2022/05/22 11:08:54;;;;;;;;;;;;;;;24.30;11.75;98437.38;5003685;28;19925;-69
2022/05/22 11:11:23;;;;;;;;;;;;;;;24.06;12.26;98452.94;5006172;28;20464;-69
2022/05/22 11:13:50;;;;;;;;;;;;;;;23.90;12.81;98431.78;5003880;28;19929;-69
2022/05/22 11:16:19;;;;;;;;;;;;;;;24.17;13.17;98441.78;4653807;28;9999920;-69
2022/05/22 11:18:46;;;;;;;;;;;;;;;24.70;12.77;98431.69;5001156;28;20003;-74
2022/05/22 11:21:22;;;;;;;;;;;;;;;25.39;12.08;98436.19;5002775;28;19957;-74
2022/05/22 11:24:08;;;;;;;;;;;;;;;25.56;11.91;98429.72;5015322;28;19929;-74
2022/05/22 11:26:47;;;;;;;;;;;;;;;24.81;12.99;98423.28;4991928;28;20404;-69
2022/05/22 11:29:21;;;;;;;;;;;;;;;24.84;13.08;98439.25;5001048;28;20098;-74
2022/05/22 11:31:51;;;;;;;;;;;;;;;25.42;12.90;98438.16;5014870;28;19926;-74
2022/05/22 11:34:27;;;;;;;;;;;;;;;25.80;12.84;98431.94;4998448;28;19925;-74
2022/05/22 11:37:00;;;;;;;;;;;;;;;25.77;12.47;98437.16;5016446;28;20007;-74
2022/05/22 11:39:38;;;;;;;;;;;;;;;25.54;12.95;98431.34;5005334;28;20359;-74
2022/05/22 11:42:10;;;;;;;;;;;;;;;25.28;13.03;98428.66;4997081;28;19926;-75
2022/05/22 11:44:46;;;;;;;;;;;;;;;24.53;13.54;98432.53;4989068;28;19925;-75
2022/05/22 11:47:25;;;;;;;;;;;;;;;24.40;13.79;98438.56;5016057;28;19925;-75
2022/05/22 11:49:55;;;;;;;;;;;;;;;24.62;13.52;98430.91;5016161;28;19925;-73
2022/05/22 11:55:19;;;;;;;;;;;;;;;24.55;13.66;98430.16;4994975;28;20253;-74
2022/05/22 11:57:52;;;;;;;;;;;;;;;24.57;13.98;98422.16;5000624;28;19925;-74
2022/05/22 12:00:19;;;;;;;;;;;;;;;25.11;13.36;98437.94;5003195;28;20022;-73
2022/05/22 12:02:52;;;;;;;;;;;;;;;25.85;12.93;98423.91;4998772;28;19956;-74
2022/05/22 12:05:23;;;;;;;;;;;;;;;25.43;13.09;98431.38;5008094;28;19932;-74
2022/05/22 12:07:58;;;;;;;;;;;;;;;24.90;13.11;98432.06;5014890;28;20004;-74
2022/05/22 12:10:29;;;;;;;;;;;;;;;25.35;12.84;98422.22;4988041;28;19952;-74
2022/05/22 12:12:59;;;;;;;;;;;;;;;25.67;12.54;98418.44;5007980;28;20397;-69
2022/05/22 12:15:31;;;;;;;;;;;;;;;25.89;12.30;98427.47;4998539;28;20392;-75
2022/05/22 12:18:00;;;;;;;;;;;;;;;26.02;12.04;98430.56;5005787;28;19926;-75
2022/05/22 12:20:29;;;;;;;;;;;;;;;26.07;12.33;98432.16;4994447;28;19953;-75
2022/05/22 12:23:12;;;;;;;;;;;;;;;25.99;12.33;98439.81;5017231;28;20427;-75
2022/05/22 12:25:45;;;;;;;;;;;;;;;26.25;12.24;98429.19;5012445;28;20331;-74
2022/05/22 12:28:26;;;;;;;;;;;;;;;26.36;12.00;98426.28;5001914;28;20067;-74
2022/05/22 12:30:53;;;;;;;;;;;;;;;26.18;12.25;98430.03;4992404;28;19979;-75
2022/05/22 12:33:18;;;;;;;;;;;;;;;26.60;11.81;98418.03;5007451;28;19934;-74
2022/05/22 12:35:45;;;;;;;;;;;;;;;26.81;11.50;98421.78;5007321;28;19929;-74
2022/05/22 12:38:12;;;;;;;;;;;;;;;26.71;11.77;98417.91;5005997;28;19951;-74
2022/05/22 12:40:46;;;;;;;;;;;;;;;26.69;11.95;98425.94;5004579;28;19933;-74
2022/05/22 12:43:16;;;;;;;;;;;;;;;27.10;11.79;98429.88;5005262;28;20020;-74
2022/05/22 12:45:43;;;;;;;;;;;;;;;27.25;11.52;98420.03;5006435;28;19933;-74
2022/05/22 12:48:11;;;;;;;;;;;;;;;27.16;11.59;98420.56;5004566;28;19925;-74
2022/05/22 12:50:44;;;;;;;;;;;;;;;27.07;11.40;98428.69;5018093;28;20377;-74
2022/05/22 12:53:16;;;;;;;;;;;;;;;26.71;11.70;98429.09;5005733;28;19925;-74
2022/05/22 12:55:42;;;;;;;;;;;;;;;26.52;11.97;98419.31;5008759;28;20400;-74
2022/05/22 12:58:26;;;;;;;;;;;;;;;26.50;11.92;98425.34;5010026;28;19925;-74
2022/05/22 13:00:55;;;;;;;;;;;;;;;26.60;11.72;98430.03;5009396;28;20455;-74
2022/05/22 13:03:23;;;;;;;;;;;;;;;26.76;11.79;98429.44;5009953;28;19990;-75
2022/05/22 13:05:55;;;;;;;;;;;;;;;26.95;11.69;98421.63;5009793;28;19929;-75
2022/05/22 13:08:27;;;;;;;;;;;;;;;27.10;11.66;98415.84;5000475;28;20365;-74
2022/05/22 13:10:54;;;;;;;;;;;;;;;27.10;11.98;98413.03;5015669;28;19925;-74
2022/05/22 13:13:24;;;;;;;;;;;;;;;26.72;12.39;98420.28;4988471;28;20421;-74
2022/05/22 13:15:56;;;;;;;;;;;;;;;26.29;12.57;98417.97;5002989;28;20422;-74
2022/05/22 13:18:23;;;;;;;;;;;;;;;26.25;12.59;98426.38;5002132;28;19925;-74
2022/05/22 13:20:51;;;;;;;;;;;;;;;26.32;12.75;98422.72;5002815;28;19937;-74
2022/05/22 13:23:28;;;;;;;;;;;;;;;26.20;12.81;98424.03;5006701;28;19929;-74
2022/05/22 13:25:56;;;;;;;;;;;;;;;26.34;12.64;98420.28;5023774;28;19930;-75
2022/05/22 13:28:25;;;;;;;;;;;;;;;26.33;12.54;98422.31;5023775;28;19932;-74
2022/05/22 13:30:52;;;;;;;;;;;;;;;26.26;12.62;98427.19;5015074;28;19987;-74
2022/05/22 13:33:20;;;;;;;;;;;;;;;25.89;12.86;98426.69;5017398;28;19925;-74
2022/05/22 13:35:53;;;;;;;;;;;;;;;24.03;13.87;98429.41;5037278;28;20364;-74
2022/05/22 13:38:20;;;;;;;;;;;;;;;24.28;13.78;98436.16;5023309;28;19925;-74